Time;durP1;ratioP1;P1;durP2;ratioP2;P2;SDS_P1;SDS_P2;PMS_P1;PMS_P2;Temp;Humidity;BMP_temperature;BMP_pressure;BME280_temperature;BME280_humidity;BME280_pressure;Samples;Min_cycle;Max_cycle;Signal;HPM_P1;HPM_P2
2022/09/10 00:01:25;;;;;;;3.17;0.70;;;12.70;98.60;;;;;;5100737;28;20214;-87
2022/09/10 00:03:53;;;;;;;1.58;1.05;;;12.70;98.70;;;;;;5099983;28;20204;-87
2022/09/10 00:06:24;;;;;;;0.88;0.80;;;12.80;98.80;;;;;;5099670;28;20205;-88
2022/09/10 00:09:37;;;;;;;2.53;0.90;;;12.70;99.00;;;;;;5102343;28;20203;-88
2022/09/10 00:12:34;;;;;;;0.98;0.75;;;12.60;99.10;;;;;;5092232;28;20209;-89
2022/09/10 00:15:14;;;;;;;0.88;0.80;;;12.50;99.40;;;;;;5104077;28;20200;-88
2022/09/10 00:17:56;;;;;;;1.60;0.88;;;12.50;99.70;;;;;;5103338;28;20268;-88
2022/09/10 00:20:43;;;;;;;0.82;0.57;;;12.40;99.60;;;;;;5100401;28;20299;-88
2022/09/10 00:23:28;;;;;;;1.50;0.70;;;12.40;99.80;;;;;;5110393;28;20214;-88
2022/09/10 00:25:57;;;;;;;1.75;0.80;;;12.40;99.80;;;;;;5105223;28;20200;-88
2022/09/10 00:28:39;;;;;;;1.25;0.60;;;12.30;99.80;;;;;;5102710;28;20208;-87
2022/09/10 00:31:15;;;;;;;1.52;0.75;;;12.30;99.90;;;;;;5107785;28;20204;-88
2022/09/10 00:33:42;;;;;;;0.88;0.70;;;12.30;99.90;;;;;;5107189;28;20674;-88
2022/09/10 00:36:22;;;;;;;0.77;0.77;;;12.30;99.90;;;;;;5108048;28;20291;-88
2022/09/10 00:38:51;;;;;;;2.47;0.60;;;12.40;99.90;;;;;;5098904;28;20206;-89
2022/09/10 00:41:20;;;;;;;0.98;0.60;;;12.40;99.80;;;;;;5083241;28;20233;-88
2022/09/10 00:44:22;;;;;;;1.27;0.60;;;12.40;99.70;;;;;;5094857;28;20299;-88
2022/09/10 00:46:58;;;;;;;5.20;0.70;;;12.40;99.40;;;;;;5096430;28;20196;-88
2022/09/10 00:49:49;;;;;;;0.73;0.73;;;12.40;99.50;;;;;;5109773;28;20200;-88
2022/09/10 00:52:17;;;;;;;1.30;0.73;;;12.40;99.60;;;;;;5099596;28;20204;-88
2022/09/10 00:54:46;;;;;;;1.20;0.70;;;12.40;99.50;;;;;;5107606;28;20658;-88
2022/09/10 00:57:18;;;;;;;0.82;0.60;;;12.30;99.80;;;;;;5108283;28;20554;-88
2022/09/10 00:59:48;;;;;;;1.50;0.90;;;12.30;99.90;;;;;;5091813;28;20223;-88
2022/09/10 01:02:27;;;;;;;1.48;0.80;;;12.30;99.90;;;;;;5104082;28;20206;-89
2022/09/10 01:08:32;;;;;;;0.80;0.80;;;12.40;99.60;;;;;;5106531;28;20219;-89
2022/09/10 01:11:10;;;;;;;2.45;0.80;;;12.40;99.70;;;;;;5089946;28;20198;-88
2022/09/10 01:13:52;;;;;;;0.88;0.80;;;12.30;99.90;;;;;;5111121;28;20200;-88
2022/09/10 01:16:30;;;;;;;0.93;0.80;;;12.40;99.80;;;;;;5105349;28;20249;-88
2022/09/10 01:19:19;;;;;;;2.05;1.10;;;12.40;99.70;;;;;;5106093;28;20195;-87
2022/09/10 01:22:04;;;;;;;0.77;0.77;;;12.40;99.70;;;;;;5106936;28;20204;-88
2022/09/10 01:25:04;;;;;;;0.60;0.60;;;12.50;99.60;;;;;;5099156;28;20212;-88
2022/09/10 01:27:48;;;;;;;1.50;0.98;;;12.60;99.00;;;;;;5062110;28;20235;-88
2022/09/10 01:30:23;;;;;;;1.13;0.80;;;12.60;98.90;;;;;;5080348;28;20656;-88
2022/09/10 01:33:09;;;;;;;0.90;0.88;;;12.60;99.10;;;;;;5105984;28;20199;-88
2022/09/10 01:35:43;;;;;;;0.90;0.80;;;12.60;99.30;;;;;;5096557;28;20197;-87
2022/09/10 01:38:20;;;;;;;1.55;1.00;;;12.70;99.30;;;;;;5106488;28;20211;-88
2022/09/10 01:40:48;;;;;;;1.27;0.73;;;12.80;98.90;;;;;;5104158;28;20220;-88
2022/09/10 01:43:27;;;;;;;1.48;0.75;;;12.80;99.00;;;;;;5108150;28;20279;-88
2022/09/10 01:46:20;;;;;;;5.13;0.90;;;12.70;99.00;;;;;;5100132;28;20548;-87
2022/09/10 01:49:00;;;;;;;1.13;0.90;;;12.80;99.00;;;;;;5102570;28;20192;-88
2022/09/10 01:51:41;;;;;;;0.80;0.70;;;12.80;99.10;;;;;;5096752;28;20192;-88
2022/09/10 01:54:29;;;;;;;1.55;0.80;;;12.80;98.90;;;;;;5096457;28;20200;-89
2022/09/10 01:57:09;;;;;;;1.63;0.80;;;12.90;98.80;;;;;;5101060;28;20197;-88
2022/09/10 01:59:54;;;;;;;1.17;0.90;;;12.80;98.80;;;;;;5093904;28;20224;-88
2022/09/10 02:02:23;;;;;;;0.60;0.60;;;12.80;99.00;;;;;;5098144;28;20234;-89
2022/09/10 02:04:52;;;;;;;5.75;0.90;;;12.80;99.00;;;;;;5093921;28;20215;-88
2022/09/10 02:07:22;;;;;;;2.83;1.02;;;12.90;98.90;;;;;;5092840;28;20295;-89
2022/09/10 02:09:49;;;;;;;1.80;1.05;;;12.80;99.10;;;;;;5092821;28;20207;-88
2022/09/10 02:12:18;;;;;;;1.00;0.90;;;13.00;98.80;;;;;;5094775;28;20215;-88
2022/09/10 02:14:58;;;;;;;1.25;1.00;;;12.90;98.40;;;;;;5094073;28;20205;-88
2022/09/10 02:17:33;;;;;;;2.60;1.08;;;12.90;98.30;;;;;;5099107;28;20206;-88
2022/09/10 02:20:02;;;;;;;2.42;0.90;;;12.80;98.40;;;;;;5100518;28;20227;-88
2022/09/10 02:22:40;;;;;;;2.03;0.80;;;12.60;98.80;;;;;;5092789;28;20253;-88
2022/09/10 02:25:09;;;;;;;1.30;0.98;;;12.60;99.10;;;;;;5113050;28;20199;-88
2022/09/10 02:27:38;;;;;;;1.08;0.90;;;12.50;99.40;;;;;;5094280;28;20201;-88
2022/09/10 02:30:08;;;;;;;1.10;0.98;;;12.40;99.50;;;;;;5116266;28;20259;-88
2022/09/10 02:32:35;;;;;;;3.60;0.90;;;12.30;99.60;;;;;;5112920;28;20260;-88
2022/09/10 02:35:08;;;;;;;1.58;1.10;;;12.30;99.80;;;;;;5104731;28;20188;-88
2022/09/10 02:37:50;;;;;;;0.80;0.80;;;12.30;99.70;;;;;;5101911;28;20204;-88
2022/09/10 02:40:29;;;;;;;1.17;0.90;;;12.20;99.80;;;;;;5108794;28;20306;-87
2022/09/10 02:42:56;;;;;;;1.10;1.00;;;12.20;99.90;;;;;;5115430;28;20192;-88
2022/09/10 02:45:25;;;;;;;1.00;0.90;;;12.10;99.90;;;;;;5102623;28;20614;-88
2022/09/10 02:47:52;;;;;;;1.20;1.00;;;12.10;99.90;;;;;;5112464;28;20224;-87
2022/09/10 02:50:19;;;;;;;1.52;0.85;;;12.10;99.90;;;;;;5085570;28;20196;-88
2022/09/10 02:52:46;;;;;;;2.25;1.00;;;12.10;99.90;;;;;;5102287;28;20205;-88
2022/09/10 02:55:13;;;;;;;1.73;0.93;;;12.10;99.90;;;;;;5107142;28;20199;-88
2022/09/10 02:57:44;;;;;;;1.17;0.88;;;12.10;99.90;;;;;;5114019;28;20199;-88
2022/09/10 03:00:21;;;;;;;1.60;1.10;;;12.10;99.90;;;;;;5109122;28;20686;-87
2022/09/10 03:03:21;;;;;;;2.63;1.00;;;12.10;99.90;;;;;;5116171;28;20714;-87
2022/09/10 03:05:50;;;;;;;1.73;1.10;;;12.00;99.90;;;;;;5105004;28;20228;-87
2022/09/10 03:08:26;;;;;;;1.10;0.80;;;12.00;99.90;;;;;;5113252;28;20536;-88
2022/09/10 03:10:54;;;;;;;3.05;1.15;;;12.00;99.90;;;;;;5059603;28;1134879;-87
2022/09/10 03:13:21;;;;;;;2.13;1.00;;;12.00;99.90;;;;;;5105667;28;20204;-87
2022/09/10 03:15:50;;;;;;;3.95;1.08;;;12.00;99.90;;;;;;5103057;28;20208;-88
2022/09/10 03:18:17;;;;;;;3.05;0.98;;;12.00;99.90;;;;;;5105305;28;20279;-87
2022/09/10 03:20:51;;;;;;;1.80;1.33;;;12.10;99.90;;;;;;5105065;28;20216;-88
2022/09/10 03:23:18;;;;;;;0.85;0.70;;;12.10;99.60;;;;;;5108076;28;20196;-87
2022/09/10 03:25:45;;;;;;;4.63;1.00;;;12.10;99.60;;;;;;5104762;28;20192;-88
2022/09/10 03:28:20;;;;;;;1.65;1.05;;;12.10;99.50;;;;;;5092594;28;20248;-87
2022/09/10 03:30:50;;;;;;;2.70;1.10;;;12.10;99.90;;;;;;5100166;28;20395;-87
2022/09/10 03:33:20;;;;;;;1.70;1.00;;;12.00;99.90;;;;;;5108902;28;20200;-87
2022/09/10 03:35:48;;;;;;;2.42;1.02;;;12.00;99.90;;;;;;5100310;28;20196;-88
2022/09/10 03:38:16;;;;;;;1.00;0.80;;;12.10;99.90;;;;;;5110130;28;20217;-88
2022/09/10 03:40:44;;;;;;;1.52;0.77;;;12.10;99.80;;;;;;5111766;28;20222;-87
2022/09/10 03:43:11;;;;;;;0.85;0.73;;;12.10;99.80;;;;;;5110756;28;21540;-87
2022/09/10 03:46:14;;;;;;;2.33;1.02;;;12.20;99.60;;;;;;5104621;28;20219;-87
2022/09/10 03:49:07;;;;;;;3.67;0.80;;;12.20;99.60;;;;;;5097862;28;20204;-87
2022/09/10 03:51:35;;;;;;;1.92;0.80;;;12.20;99.50;;;;;;5110139;28;20279;-87
2022/09/10 03:54:04;;;;;;;1.50;0.80;;;12.20;99.50;;;;;;5104311;28;20287;-87
2022/09/10 03:56:32;;;;;;;0.77;0.60;;;12.30;99.40;;;;;;5104206;28;20200;-88
2022/09/10 03:59:01;;;;;;;3.05;0.80;;;12.30;99.40;;;;;;5106899;28;20192;-87
2022/09/10 04:01:49;;;;;;;1.00;0.90;;;12.30;99.20;;;;;;5101351;28;20247;-87
2022/09/10 04:04:20;;;;;;;0.95;0.77;;;12.40;99.20;;;;;;5114254;28;20208;-87
2022/09/10 04:07:02;;;;;;;1.35;1.10;;;12.50;99.40;;;;;;5108880;28;20192;-87
2022/09/10 04:09:33;;;;;;;2.63;0.95;;;12.50;99.10;;;;;;5102772;28;20268;-87
2022/09/10 04:12:01;;;;;;;2.20;0.80;;;12.50;99.10;;;;;;5103864;28;20199;-87
2022/09/10 04:14:49;;;;;;;1.88;0.90;;;12.50;99.30;;;;;;5103459;28;20206;-87
2022/09/10 04:17:20;;;;;;;2.05;1.00;;;12.50;99.00;;;;;;5102086;28;20206;-87
2022/09/10 04:20:14;;;;;;;1.52;0.82;;;12.50;98.90;;;;;;5101258;28;20753;-87
2022/09/10 04:22:51;;;;;;;2.03;0.85;;;12.50;98.90;;;;;;5090879;28;20701;-87
2022/09/10 04:25:22;;;;;;;4.57;0.90;;;12.60;98.90;;;;;;5099622;28;20205;-87
2022/09/10 04:27:50;;;;;;;1.15;0.80;;;12.60;98.60;;;;;;5102184;28;20188;-87
2022/09/10 04:30:39;;;;;;;2.30;1.00;;;12.60;98.80;;;;;;5104987;28;20195;-87
2022/09/10 04:33:08;;;;;;;0.80;0.70;;;12.50;98.90;;;;;;5102164;28;20212;-87
2022/09/10 04:35:38;;;;;;;1.08;0.95;;;12.60;98.90;;;;;;5100795;28;20235;-87
2022/09/10 04:38:08;;;;;;;1.35;0.90;;;12.70;99.00;;;;;;5108672;28;20540;-87
2022/09/10 04:40:57;;;;;;;1.52;0.80;;;12.70;99.00;;;;;;5108989;28;20240;-87
2022/09/10 04:43:25;;;;;;;1.83;0.70;;;12.70;99.00;;;;;;5090755;28;20223;-87
2022/09/10 04:45:56;;;;;;;5.65;1.00;;;12.70;99.00;;;;;;5105692;28;20199;-87
2022/09/10 04:48:32;;;;;;;2.67;0.93;;;12.70;99.20;;;;;;5096859;28;20275;-87
2022/09/10 04:51:19;;;;;;;2.10;1.00;;;12.80;99.20;;;;;;5099257;28;20200;-87
2022/09/10 04:54:19;;;;;;;1.08;0.90;;;12.90;98.80;;;;;;5093176;28;20200;-87
2022/09/10 04:57:04;;;;;;;1.13;0.80;;;13.00;98.60;;;;;;5100450;28;20643;-87
2022/09/10 04:59:31;;;;;;;1.45;0.80;;;13.00;98.70;;;;;;5086642;28;20204;-88
2022/09/10 05:01:58;;;;;;;3.35;1.05;;;13.00;98.60;;;;;;5095026;28;20220;-88
2022/09/10 05:05:13;;;;;;;0.70;0.70;;;13.00;98.40;;;;;;5083275;28;20197;-88
2022/09/10 05:07:51;;;;;;;1.88;0.90;;;13.00;98.40;;;;;;5076791;28;20208;-88
2022/09/10 05:10:20;;;;;;;1.42;0.80;;;13.10;98.40;;;;;;5089858;28;20223;-88
2022/09/10 05:12:51;;;;;;;1.80;0.75;;;13.10;98.40;;;;;;5086049;28;20215;-89
2022/09/10 05:15:20;;;;;;;1.92;1.08;;;13.10;98.30;;;;;;5092041;28;20686;-88
2022/09/10 05:18:08;;;;;;;1.02;0.82;;;13.10;98.10;;;;;;5084602;28;20200;-88
2022/09/10 05:20:38;;;;;;;2.67;1.00;;;13.10;98.00;;;;;;5090589;28;20201;-89
2022/09/10 05:23:05;;;;;;;1.77;1.23;;;13.20;97.90;;;;;;5092473;28;20208;-88
2022/09/10 05:26:01;;;;;;;1.45;1.05;;;13.20;97.90;;;;;;5097801;28;20203;-89
2022/09/10 05:28:30;;;;;;;2.95;1.00;;;13.30;97.80;;;;;;5103288;28;20205;-89
2022/09/10 05:31:02;;;;;;;1.23;1.00;;;13.30;97.80;;;;;;5100751;28;20679;-88
2022/09/10 05:33:32;;;;;;;2.45;1.00;;;13.40;97.80;;;;;;5081151;28;20192;-89
2022/09/10 05:36:19;;;;;;;3.17;0.98;;;13.40;97.80;;;;;;5094578;28;20201;-89
2022/09/10 05:39:07;;;;;;;2.45;1.00;;;13.50;97.60;;;;;;5093991;28;20652;-88
2022/09/10 05:41:36;;;;;;;1.98;0.80;;;13.50;97.50;;;;;;5072179;28;20216;-88
2022/09/10 05:44:09;;;;;;;1.23;0.88;;;13.50;97.70;;;;;;5070045;28;20228;-89
2022/09/10 05:46:50;;;;;;;0.80;0.80;;;13.50;97.70;;;;;;5095354;28;20223;-88
2022/09/10 05:49:58;;;;;;;3.30;1.27;;;13.50;97.70;;;;;;5073985;28;20198;-89
2022/09/10 05:52:25;;;;;;;1.92;0.90;;;13.60;97.70;;;;;;5092019;28;20196;-89
2022/09/10 05:54:57;;;;;;;2.13;0.90;;;13.60;97.60;;;;;;5098359;28;20195;-89
2022/09/10 05:57:39;;;;;;;1.75;1.10;;;13.60;98.00;;;;;;5088194;28;20196;-89
2022/09/10 06:00:11;;;;;;;1.70;1.08;;;13.70;98.10;;;;;;5084605;28;20219;-89
2022/09/10 06:02:38;;;;;;;0.95;0.93;;;13.80;97.60;;;;;;5094207;28;20230;-89
2022/09/10 06:05:06;;;;;;;2.53;0.90;;;13.80;97.50;;;;;;5094827;28;21012;-88
2022/09/10 06:07:33;;;;;;;1.73;0.95;;;13.80;96.60;;;;;;5078145;28;20192;-89
2022/09/10 06:10:02;;;;;;;1.15;0.85;;;13.90;96.70;;;;;;5080874;28;20663;-89
2022/09/10 06:12:33;;;;;;;1.30;0.98;;;14.00;96.70;;;;;;5096291;28;20205;-88
2022/09/10 06:15:00;;;;;;;1.38;0.85;;;14.10;96.70;;;;;;5098673;28;20196;-89
2022/09/10 06:17:40;;;;;;;1.48;1.00;;;14.20;96.30;;;;;;5094023;28;20200;-89
2022/09/10 06:20:14;;;;;;;4.25;1.08;;;14.10;96.70;;;;;;5082154;28;20571;-89
2022/09/10 06:23:07;;;;;;;1.77;1.10;;;14.10;97.10;;;;;;5090411;28;20209;-89
2022/09/10 06:25:38;;;;;;;1.83;1.10;;;14.00;97.40;;;;;;5102093;28;20192;-89
2022/09/10 06:28:37;;;;;;;3.10;1.10;;;14.00;98.00;;;;;;5097306;28;20218;-89
2022/09/10 06:31:10;;;;;;;3.78;1.13;;;13.90;98.40;;;;;;5101404;28;20215;-89
2022/09/10 06:34:17;;;;;;;5.82;1.45;;;13.80;99.10;;;;;;5092994;28;20192;-89
2022/09/10 06:36:48;;;;;;;2.10;1.40;;;13.70;99.50;;;;;;5090212;28;20188;-88
2022/09/10 06:39:20;;;;;;;2.17;1.23;;;13.60;99.70;;;;;;5090394;28;20204;-89
2022/09/10 06:41:56;;;;;;;2.75;1.30;;;13.50;99.90;;;;;;5091823;28;20212;-88
2022/09/10 06:44:38;;;;;;;2.72;1.27;;;13.40;99.90;;;;;;5092530;28;20317;-89
2022/09/10 06:47:20;;;;;;;2.88;1.50;;;13.40;99.90;;;;;;5092099;28;20648;-89
2022/09/10 06:49:57;;;;;;;3.33;1.30;;;13.30;99.90;;;;;;5092360;28;20287;-88
2022/09/10 06:52:38;;;;;;;2.60;1.08;;;13.40;99.90;;;;;;5098640;28;20191;-89
2022/09/10 06:55:06;;;;;;;2.40;1.17;;;13.40;99.90;;;;;;5091627;28;20580;-89
2022/09/10 06:58:08;;;;;;;1.90;1.20;;;13.50;99.90;;;;;;5092315;28;20188;-89
2022/09/10 07:00:38;;;;;;;2.00;1.58;;;13.60;99.90;;;;;;5094397;28;20211;-89
2022/09/10 07:03:37;;;;;;;2.88;1.45;;;13.70;99.90;;;;;;5095656;28;20220;-89
2022/09/10 07:06:12;;;;;;;1.45;1.10;;;13.70;99.90;;;;;;5089089;28;20567;-88
2022/09/10 07:09:02;;;;;;;2.05;1.00;;;13.80;99.90;;;;;;5099230;28;20192;-89
2022/09/10 07:11:30;;;;;;;1.95;1.10;;;13.80;99.90;;;;;;5103058;28;20601;-88
2022/09/10 07:13:58;;;;;;;1.73;1.10;;;13.90;99.90;;;;;;5100146;28;20279;-87
2022/09/10 07:17:02;;;;;;;1.25;1.00;;;13.90;99.90;;;;;;5100539;28;20197;-88
2022/09/10 07:19:44;;;;;;;1.30;1.00;;;13.90;99.90;;;;;;5094335;28;20207;-88
2022/09/10 07:22:15;;;;;;;2.20;1.10;;;14.00;99.90;;;;;;5098164;28;20222;-87
2022/09/10 07:25:20;;;;;;;1.92;1.13;;;14.10;99.90;;;;;;5093817;28;20235;-88
2022/09/10 07:27:50;;;;;;;2.60;1.20;;;14.20;99.90;;;;;;5096523;28;20300;-89
2022/09/10 07:30:36;;;;;;;2.50;1.30;;;14.20;99.90;;;;;;5092975;28;20200;-89
2022/09/10 07:33:14;;;;;;;4.35;1.17;;;14.30;99.90;;;;;;5093040;28;20559;-87
2022/09/10 07:36:02;;;;;;;1.73;0.90;;;14.50;99.90;;;;;;5087933;28;20198;-88
2022/09/10 07:39:03;;;;;;;1.75;0.82;;;14.70;99.40;;;;;;5082398;28;20196;-88
2022/09/10 07:41:34;;;;;;;2.05;0.90;;;14.90;98.10;;;;;;5080086;28;20219;-88
2022/09/10 07:44:02;;;;;;;3.00;1.00;;;15.00;97.70;;;;;;5094275;28;21033;-88
2022/09/10 07:46:32;;;;;;;3.25;1.17;;;15.20;96.90;;;;;;5096955;28;20210;-87
2022/09/10 07:49:01;;;;;;;2.38;1.00;;;15.40;97.20;;;;;;5091458;28;20214;-88
2022/09/10 07:51:38;;;;;;;1.67;0.70;;;15.70;96.20;;;;;;5079295;28;20199;-86
2022/09/10 07:54:09;;;;;;;2.15;0.98;;;15.70;96.10;;;;;;5089844;28;20719;-90
2022/09/10 07:56:38;;;;;;;3.45;0.90;;;15.70;95.10;;;;;;5081990;28;20252;-87
2022/09/10 07:59:08;;;;;;;2.70;1.30;;;15.60;96.20;;;;;;5097363;28;20206;-89
2022/09/10 08:01:45;;;;;;;3.78;1.00;;;15.60;96.70;;;;;;5094871;28;20287;-91
2022/09/10 08:04:45;;;;;;;1.35;0.90;;;15.40;96.20;;;;;;5092160;28;20188;-89
2022/09/10 08:07:26;;;;;;;1.27;1.00;;;15.30;97.00;;;;;;5089746;28;20197;-86
2022/09/10 08:10:06;;;;;;;1.55;0.98;;;15.30;97.00;;;;;;5071416;28;20654;-87
2022/09/10 08:12:33;;;;;;;0.90;0.90;;;15.30;97.00;;;;;;5091666;28;20619;-86
2022/09/10 08:15:00;;;;;;;2.05;1.20;;;15.30;97.00;;;;;;5097576;28;20582;-86
2022/09/10 08:17:29;;;;;;;2.40;0.88;;;15.30;97.00;;;;;;5093481;28;20200;-86
2022/09/10 08:19:56;;;;;;;2.17;0.93;;;15.30;97.20;;;;;;5111525;28;20199;-87
2022/09/10 08:22:26;;;;;;;1.40;1.20;;;15.30;97.00;;;;;;5092087;28;20208;-87
2022/09/10 08:24:57;;;;;;;2.85;1.05;;;15.30;97.40;;;;;;5087924;28;20197;-86
2022/09/10 08:27:40;;;;;;;1.00;1.00;;;15.30;97.90;;;;;;5092071;28;20211;-88
2022/09/10 08:30:09;;;;;;;4.40;1.10;;;15.20;98.50;;;;;;5091791;28;20219;-86
2022/09/10 08:32:51;;;;;;;2.53;1.25;;;15.30;98.70;;;;;;5085980;28;20792;-87
2022/09/10 08:35:18;;;;;;;2.08;1.17;;;15.30;98.70;;;;;;5089834;28;20197;-85
2022/09/10 08:37:45;;;;;;;1.45;1.00;;;15.40;98.10;;;;;;5091651;28;20203;-85
2022/09/10 08:40:13;;;;;;;1.30;1.20;;;15.40;98.00;;;;;;5090782;28;20214;-86
2022/09/10 08:42:45;;;;;;;1.30;1.20;;;15.40;97.50;;;;;;5095511;28;20648;-85
2022/09/10 08:45:16;;;;;;;1.08;1.00;;;15.40;97.00;;;;;;5091357;28;20220;-86
2022/09/10 08:47:53;;;;;;;2.35;1.00;;;15.40;97.20;;;;;;5087816;28;20286;-85
2022/09/10 08:50:29;;;;;;;1.27;1.10;;;15.60;97.70;;;;;;5094035;28;20199;-86
2022/09/10 08:53:02;;;;;;;2.95;1.63;;;15.90;97.40;;;;;;5079408;28;20199;-86
2022/09/10 08:55:32;;;;;;;2.33;1.52;;;16.20;97.20;;;;;;5081562;28;20283;-87
2022/09/10 08:58:17;;;;;;;3.38;1.30;;;16.80;95.50;;;;;;5087812;28;20840;-87
2022/09/10 09:00:52;;;;;;;1.63;1.33;;;17.10;94.90;;;;;;5085464;28;20196;-87
2022/09/10 09:03:24;;;;;;;1.85;1.50;;;17.20;93.40;;;;;;5084806;28;20227;-87
2022/09/10 09:06:00;;;;;;;1.33;1.10;;;17.30;92.00;;;;;;5080468;28;20599;-87
2022/09/10 09:08:30;;;;;;;4.00;1.33;;;17.50;92.00;;;;;;5078584;28;20927;-86
2022/09/10 09:11:09;;;;;;;1.38;1.20;;;17.70;91.90;;;;;;5088081;28;20199;-88
2022/09/10 09:14:13;;;;;;;2.72;1.30;;;17.60;90.90;;;;;;5086452;28;20258;-88
2022/09/10 09:16:53;;;;;;;1.85;1.10;;;17.60;90.90;;;;;;5089283;28;20195;-88
2022/09/10 09:19:29;;;;;;;2.00;1.25;;;17.50;92.00;;;;;;5086756;28;20575;-88
2022/09/10 09:22:00;;;;;;;1.27;1.10;;;17.40;91.80;;;;;;5088112;28;20219;-88
2022/09/10 09:24:36;;;;;;;2.25;1.30;;;17.50;91.70;;;;;;5084383;28;20200;-87
2022/09/10 09:27:09;;;;;;;2.42;1.15;;;17.60;91.00;;;;;;5087695;28;20585;-92
2022/09/10 09:29:43;;;;;;;3.83;1.40;;;17.30;92.00;;;;;;5083460;28;20200;-87
2022/09/10 09:32:17;;;;;;;1.10;1.00;;;16.90;93.00;;;;;;5082139;28;20207;-87
2022/09/10 09:34:54;;;;;;;2.15;1.10;;;16.70;94.30;;;;;;5087937;28;20191;-87
2022/09/10 09:37:25;;;;;;;3.17;1.70;;;16.80;95.10;;;;;;5084091;28;20196;-87
2022/09/10 09:40:06;;;;;;;1.48;1.38;;;17.00;95.50;;;;;;5091165;28;20196;-87
2022/09/10 09:42:43;;;;;;;1.08;1.00;;;17.30;93.80;;;;;;5089569;28;20219;-88
2022/09/10 09:45:22;;;;;;;1.50;1.00;;;17.40;93.80;;;;;;5091331;28;20215;-87
2022/09/10 09:47:50;;;;;;;6.75;2.85;;;17.50;94.20;;;;;;5097263;28;20211;-87
2022/09/10 09:50:27;;;;;;;2.08;1.10;;;17.40;92.80;;;;;;5099542;28;20299;-87
2022/09/10 09:52:56;;;;;;;3.58;1.15;;;17.20;92.70;;;;;;5096571;28;20801;-87
2022/09/10 09:55:32;;;;;;;1.60;1.20;;;16.80;94.10;;;;;;5088566;28;20203;-88
2022/09/10 09:58:32;;;;;;;1.85;1.15;;;16.30;95.40;;;;;;5093846;28;20280;-87
2022/09/10 10:01:22;;;;;;;1.73;1.15;;;16.10;96.70;;;;;;5095059;28;20204;-87
2022/09/10 10:03:57;;;;;;;2.53;1.13;;;15.90;97.10;;;;;;5094470;28;20254;-87
2022/09/10 10:06:26;;;;;;;1.08;0.82;;;15.90;97.20;;;;;;5090796;28;20216;-88
2022/09/10 10:08:57;;;;;;;3.60;1.15;;;15.80;96.40;;;;;;5094592;28;20610;-87
2022/09/10 10:11:40;;;;;;;2.90;1.20;;;15.60;97.00;;;;;;5091976;28;20259;-87
2022/09/10 10:14:14;;;;;;;2.90;1.25;;;15.60;97.00;;;;;;5096595;28;20201;-87
2022/09/10 10:16:42;;;;;;;3.88;1.60;;;15.30;97.10;;;;;;5093182;28;20199;-87
2022/09/10 10:19:28;;;;;;;1.58;1.23;;;15.10;98.60;;;;;;5097524;28;20197;-88
2022/09/10 10:21:58;;;;;;;3.90;1.50;;;15.00;99.20;;;;;;5096754;28;20196;-87
2022/09/10 10:24:31;;;;;;;3.47;1.50;;;14.90;99.50;;;;;;5103920;28;20192;-87
2022/09/10 10:26:59;;;;;;;2.95;1.83;;;14.90;99.90;;;;;;5097254;28;20210;-87
2022/09/10 10:29:26;;;;;;;1.40;1.30;;;15.00;99.90;;;;;;5087128;28;20246;-87
2022/09/10 10:32:00;;;;;;;3.10;1.58;;;15.10;99.90;;;;;;5096677;28;20604;-87
2022/09/10 10:34:44;;;;;;;2.22;1.20;;;15.20;99.90;;;;;;5097503;28;20200;-87
2022/09/10 10:37:33;;;;;;;3.20;1.50;;;15.00;99.90;;;;;;5096283;28;20278;-88
2022/09/10 10:40:14;;;;;;;3.50;1.35;;;14.90;99.90;;;;;;5086335;28;20199;-88
2022/09/10 10:42:49;;;;;;;1.92;1.27;;;15.00;99.90;;;;;;5093919;28;20207;-87
2022/09/10 10:45:35;;;;;;;2.33;1.50;;;15.20;99.90;;;;;;5097649;28;20667;-89
2022/09/10 10:48:11;;;;;;;3.92;1.20;;;15.60;99.90;;;;;;5092510;28;20236;-87
2022/09/10 10:50:47;;;;;;;2.85;1.75;;;16.00;99.90;;;;;;5096302;28;20702;-87
2022/09/10 10:53:21;;;;;;;2.22;1.35;;;16.30;99.50;;;;;;5093569;28;20227;-87
2022/09/10 10:55:56;;;;;;;12.35;5.05;;;16.60;99.80;;;;;;5094541;28;20206;-87
2022/09/10 10:58:48;;;;;;;2.65;2.13;;;17.30;99.40;;;;;;5097094;28;20208;-88
2022/09/10 11:01:19;;;;;;;3.42;1.60;;;17.80;96.90;;;;;;5092782;28;20219;-86
2022/09/10 11:03:59;;;;;;;2.78;1.38;;;17.80;94.80;;;;;;5092337;28;20227;-86
2022/09/10 11:06:44;;;;;;;1.48;1.10;;;17.90;95.10;;;;;;5092363;28;20636;-86
2022/09/10 11:09:31;;;;;;;1.30;1.00;;;17.80;94.90;;;;;;5097763;28;20203;-86
2022/09/10 11:12:02;;;;;;;2.10;1.40;;;17.70;95.60;;;;;;5095354;28;22414;-85
2022/09/10 11:14:37;;;;;;;3.78;1.73;;;17.60;95.30;;;;;;5100938;28;20203;-85
2022/09/10 11:17:39;;;;;;;2.47;1.23;;;17.80;95.40;;;;;;5094694;28;20665;-87
2022/09/10 11:20:17;;;;;;;0.98;0.95;;;18.00;94.20;;;;;;5090474;28;20192;-87
2022/09/10 11:22:51;;;;;;;2.05;1.17;;;18.10;92.50;;;;;;5096042;28;20203;-87
2022/09/10 11:25:23;;;;;;;1.88;1.13;;;18.30;92.20;;;;;;5094691;28;20196;-87
2022/09/10 11:27:55;;;;;;;2.83;1.60;;;18.30;92.20;;;;;;5097995;28;20230;-83
2022/09/10 11:30:22;;;;;;;1.38;1.05;;;18.30;87.90;;;;;;5100049;28;20203;-86
2022/09/10 11:32:55;;;;;;;1.10;0.90;;;18.10;87.50;;;;;;5094808;28;20241;-86
2022/09/10 11:35:35;;;;;;;1.60;0.85;;;18.00;91.20;;;;;;5096325;28;20197;-86
2022/09/10 11:38:21;;;;;;;1.40;1.00;;;18.00;91.60;;;;;;5101240;28;20207;-86
2022/09/10 11:40:55;;;;;;;2.38;1.00;;;18.00;90.40;;;;;;5092999;28;20620;-86
2022/09/10 11:43:38;;;;;;;3.85;3.45;;;18.20;90.70;;;;;;5101058;28;20675;-86
2022/09/10 11:46:12;;;;;;;2.70;0.82;;;18.00;90.00;;;;;;5097275;28;20237;-86
2022/09/10 11:48:58;;;;;;;2.22;1.85;;;17.80;87.10;;;;;;5100242;28;20200;-86
2022/09/10 11:51:30;;;;;;;3.55;1.02;;;17.90;87.00;;;;;;5096369;28;20228;-86
2022/09/10 11:53:58;;;;;;;1.98;1.50;;;18.00;87.30;;;;;;5091254;28;20204;-86
2022/09/10 11:56:59;;;;;;;1.58;1.20;;;18.20;89.00;;;;;;5089179;28;20196;-86
2022/09/10 11:59:43;;;;;;;1.73;1.45;;;18.30;82.60;;;;;;5059975;28;20204;-86
2022/09/10 12:02:45;;;;;;;1.08;0.98;;;18.50;81.00;;;;;;5092126;28;20297;-86
2022/09/10 12:05:22;;;;;;;1.90;1.23;;;18.80;82.60;;;;;;5092132;28;20202;-87
2022/09/10 12:07:58;;;;;;;1.40;1.05;;;19.10;77.70;;;;;;5090818;28;20192;-89
2022/09/10 12:10:33;;;;;;;3.17;1.10;;;19.60;70.90;;;;;;5091074;28;20196;-89
2022/09/10 12:13:01;;;;;;;3.03;1.00;;;19.70;71.50;;;;;;5087797;28;20212;-84
2022/09/10 12:15:32;;;;;;;2.38;1.02;;;19.60;66.50;;;;;;5088383;28;20196;-85
2022/09/10 12:18:07;;;;;;;1.05;0.77;;;19.50;68.40;;;;;;5090444;28;20206;-85
2022/09/10 12:20:39;;;;;;;1.35;0.90;;;19.30;59.60;;;;;;5090223;28;20192;-85
2022/09/10 12:23:13;;;;;;;0.90;0.90;;;19.20;63.00;;;;;;5088916;28;20714;-85
2022/09/10 12:25:58;;;;;;;1.20;1.10;;;19.10;61.30;;;;;;5089535;28;20196;-86
2022/09/10 12:28:58;;;;;;;1.50;0.98;;;18.80;65.60;;;;;;5088103;28;20677;-86
2022/09/10 12:31:27;;;;;;;1.10;1.00;;;18.80;68.70;;;;;;5091877;28;20200;-87
2022/09/10 12:34:16;;;;;;;1.38;0.82;;;18.80;71.00;;;;;;5089376;28;20620;-87
2022/09/10 12:37:23;;;;;;;1.20;1.00;;;19.00;73.80;;;;;;5081945;28;20193;-87
2022/09/10 12:40:23;;;;;;;1.35;0.93;;;19.00;66.00;;;;;;5086790;28;20192;-87
2022/09/10 12:42:52;;;;;;;1.45;1.10;;;18.90;64.20;;;;;;5096385;28;20203;-86
2022/09/10 12:45:54;;;;;;;1.40;0.80;;;18.90;69.40;;;;;;5101286;28;20653;-87
2022/09/10 12:48:21;;;;;;;2.13;0.80;;;19.10;69.60;;;;;;5090276;28;20282;-86
2022/09/10 12:50:59;;;;;;;2.83;2.25;;;19.40;61.70;;;;;;5092774;28;20200;-85
2022/09/10 12:54:15;;;;;;;2.00;1.15;;;19.70;55.60;;;;;;5092035;28;20243;-85
2022/09/10 12:57:07;;;;;;;1.85;1.00;;;19.40;55.30;;;;;;5094282;28;20197;-85
2022/09/10 12:59:56;;;;;;;1.60;0.85;;;19.30;59.40;;;;;;5090183;28;20639;-85
2022/09/10 13:02:30;;;;;;;1.73;0.90;;;18.80;58.10;;;;;;5085409;28;20208;-86
2022/09/10 13:05:00;;;;;;;3.55;1.13;;;18.90;68.10;;;;;;5089362;28;20265;-86
2022/09/10 13:07:34;;;;;;;0.93;0.93;;;18.90;66.20;;;;;;5093024;28;20200;-86
2022/09/10 13:10:06;;;;;;;1.15;0.90;;;19.00;70.00;;;;;;5095100;28;20207;-85
2022/09/10 13:12:36;;;;;;;1.95;1.00;;;19.20;60.90;;;;;;5093377;28;20209;-85
2022/09/10 13:15:06;;;;;;;1.83;1.00;;;19.40;60.90;;;;;;5092536;28;20196;-85
2022/09/10 13:18:18;;;;;;;4.15;1.38;;;19.50;58.00;;;;;;5099745;28;20206;-85
2022/09/10 13:20:45;;;;;;;1.30;0.95;;;19.90;55.80;;;;;;5003683;28;20200;-85
2022/09/10 13:23:21;;;;;;;4.63;0.98;;;19.80;49.80;;;;;;4985439;28;20318;-86
2022/09/10 13:25:50;;;;;;;4.43;1.08;;;19.90;45.80;;;;;;4994909;28;20289;-86
2022/09/10 13:28:53;;;;;;;1.88;1.30;;;19.70;51.50;;;;;;4994720;28;20215;-86
2022/09/10 13:31:26;;;;;;;1.83;0.95;;;19.70;51.40;;;;;;4997175;28;20267;-85
2022/09/10 13:34:27;;;;;;;1.67;0.98;;;19.50;52.50;;;;;;5001692;28;20214;-86
2022/09/10 13:37:09;;;;;;;0.95;0.77;;;19.50;47.90;;;;;;4990576;28;20200;-85
2022/09/10 13:40:09;;;;;;;0.95;0.85;;;19.40;53.00;;;;;;4999852;28;20648;-85
2022/09/10 13:42:55;;;;;;;2.25;1.20;;;19.40;50.00;;;;;;5003958;28;20207;-85